Time;durP1;ratioP1;P1;durP2;ratioP2;P2;SDS_P1;SDS_P2;PMS_P1;PMS_P2;Temp;Humidity;BMP_temperature;BMP_pressure;BME280_temperature;BME280_humidity;BME280_pressure;Samples;Min_cycle;Max_cycle;Signal;HPM_P1;HPM_P2
2022/06/21 00:01:27;;;;;;;15.60;6.60;;;;;;;20.32;55.25;98110.39;105960;1276;96326;-72
2022/06/21 00:03:56;;;;;;;12.50;5.80;;;;;;;20.24;55.21;98107.88;105941;1276;97826;-71
2022/06/21 00:06:29;;;;;;;15.50;5.60;;;;;;;20.07;55.44;98107.84;105849;1276;111445;-68
2022/06/21 00:08:56;;;;;;;15.10;5.40;;;;;;;19.90;55.37;98124.50;105950;1276;97140;-68
2022/06/21 00:11:31;;;;;;;10.90;5.00;;;;;;;19.76;55.23;98124.35;105952;1276;107684;-68
2022/06/21 00:13:59;;;;;;;13.30;5.80;;;;;;;19.64;55.35;98125.37;105963;1276;97750;-70
2022/06/21 00:16:34;;;;;;;20.00;5.90;;;;;;;19.55;55.35;98112.42;105936;1276;97956;-68
2022/06/21 00:19:06;;;;;;;10.90;4.90;;;;;;;19.44;55.52;98119.79;105895;1276;111908;-68
2022/06/21 00:21:39;;;;;;;10.00;4.90;;;;;;;19.35;55.87;98137.08;105993;1276;97853;-69
2022/06/21 00:24:09;;;;;;;;;;;;;;;19.23;56.13;98137.11;105931;1276;107706;-69
2022/06/21 00:26:39;;;;;;;8.00;4.00;;;;;;;19.09;55.90;98113.91;105883;1276;97943;-70
2022/06/21 00:29:10;;;;;;;9.60;4.70;;;;;;;18.99;55.94;98103.92;105912;1276;97991;-69
2022/06/21 00:31:47;;;;;;;9.10;4.40;;;;;;;18.90;55.88;98102.64;105979;1276;112022;-68
2022/06/21 00:34:19;;;;;;;12.50;4.90;;;;;;;18.85;55.50;98117.52;105914;1278;97970;-69
2022/06/21 00:36:49;;;;;;;10.10;4.90;;;;;;;18.82;56.12;98124.71;105851;1277;108337;-69
2022/06/21 00:39:20;;;;;;;8.30;4.30;;;;;;;18.77;55.78;98123.06;105891;1276;95278;-69
2022/06/21 00:42:13;;;;;;;7.30;4.70;;;;;;;18.73;55.98;98119.80;105941;1276;97898;-69
2022/06/21 00:44:59;;;;;;;11.40;4.60;;;;;;;18.71;56.10;98122.83;105902;1277;111398;-71
2022/06/21 00:47:54;;;;;;;11.10;4.40;;;;;;;18.65;56.40;98123.33;105913;1276;97889;-71
2022/06/21 00:50:39;;;;;;;8.60;4.40;;;;;;;18.55;56.80;98137.78;105923;1277;107699;-69
2022/06/21 00:53:20;;;;;;;9.50;4.20;;;;;;;18.49;56.26;98152.70;105924;1276;97986;-68
2022/06/21 00:56:05;;;;;;;8.20;4.40;;;;;;;18.45;56.46;98159.13;105952;1276;97822;-68
2022/06/21 00:58:33;;;;;;;9.60;4.50;;;;;;;18.37;56.66;98164.44;105951;1276;114155;-69
2022/06/21 01:01:06;;;;;;;8.80;4.20;;;;;;;18.28;56.72;98170.61;105992;1277;96479;-69
2022/06/21 01:03:50;;;;;;;8.90;4.40;;;;;;;18.19;56.84;98163.77;105930;1276;108548;-68
2022/06/21 01:06:34;;;;;;;9.70;5.10;;;;;;;18.07;57.75;98172.63;105978;1276;95271;-68
2022/06/21 01:09:12;;;;;;;12.80;5.40;;;;;;;17.91;57.37;98167.45;105917;1277;96211;-69
2022/06/21 01:11:55;;;;;;;12.60;5.70;;;;;;;17.79;57.46;98162.99;105970;1277;111377;-68
2022/06/21 01:14:27;;;;;;;11.80;5.20;;;;;;;17.68;57.42;98174.09;105973;1276;97732;-68
2022/06/21 01:16:59;;;;;;;12.10;5.90;;;;;;;17.58;57.23;98173.92;105958;1276;107701;-68
2022/06/21 01:19:52;;;;;;;12.30;6.20;;;;;;;17.52;57.35;98155.85;105986;1277;97902;-68
2022/06/21 01:22:36;;;;;;;9.90;6.00;;;;;;;17.42;57.97;98148.66;105925;1277;97957;-68
2022/06/21 01:25:49;;;;;;;9.00;5.90;;;;;;;17.35;57.76;98148.97;105965;1276;111368;-69
2022/06/21 01:28:21;;;;;;;10.70;5.90;;;;;;;17.23;57.97;98153.39;105938;1276;97957;-68
2022/06/21 01:30:55;;;;;;;10.40;5.50;;;;;;;17.14;57.64;98161.17;105929;1277;107882;-68
2022/06/21 01:33:35;;;;;;;10.60;5.50;;;;;;;17.06;57.85;98163.14;105905;1276;97957;-68
2022/06/21 01:36:28;;;;;;;7.70;5.30;;;;;;;16.98;58.25;98149.90;105884;1277;97897;-68
2022/06/21 01:39:05;;;;;;;10.90;5.70;;;;;;;16.87;59.74;98152.96;105892;1277;112025;-67
2022/06/21 01:41:41;;;;;;;11.60;5.80;;;;;;;16.75;58.22;98159.85;105769;1278;97074;-69
2022/06/21 01:44:25;;;;;;;11.40;6.10;;;;;;;16.63;59.02;98166.54;105902;1277;108334;-68
2022/06/21 01:46:59;;;;;;;12.20;6.80;;;;;;;16.50;58.33;98173.86;105873;1277;95538;-69
2022/06/21 01:49:32;;;;;;;11.70;7.10;;;;;;;16.41;58.94;98177.81;105953;1277;97916;-68
2022/06/21 01:52:13;;;;;;;13.30;7.80;;;;;;;16.29;59.23;98190.51;105921;1277;111904;-69
2022/06/21 01:54:54;;;;;;;14.40;8.40;;;;;;;16.17;58.59;98190.27;105937;1277;95875;-66
2022/06/21 01:57:27;;;;;;;15.60;8.60;;;;;;;16.09;58.77;98191.88;105976;1277;106349;-66
2022/06/21 02:00:03;;;;;;;14.10;7.80;;;;;;;16.02;58.85;98188.63;105964;1276;97974;-68
2022/06/21 02:03:15;;;;;;;13.80;7.60;;;;;;;15.97;58.83;98189.33;105961;1277;97918;-66
2022/06/21 02:05:52;;;;;;;15.40;7.30;;;;;;;15.91;59.04;98199.63;105985;1276;112005;-69
2022/06/21 02:08:38;;;;;;;13.10;7.10;;;;;;;15.87;59.29;98201.14;105942;1277;97902;-69
2022/06/21 02:11:14;;;;;;;11.70;6.30;;;;;;;15.85;58.80;98200.33;105937;1278;108122;-68
2022/06/21 02:16:51;;;;;;;10.50;5.40;;;;;;;15.77;59.48;98184.54;105862;1277;97758;-69
2022/06/21 02:19:31;;;;;;;8.50;5.40;;;;;;;15.72;59.42;98191.00;105910;1276;112069;-69
2022/06/21 02:21:58;;;;;;;8.70;4.70;;;;;;;15.68;59.15;98198.34;105952;1277;99130;-69
2022/06/21 02:24:31;;;;;;;10.30;4.80;;;;;;;15.66;59.66;98204.70;105967;1276;108339;-69
2022/06/21 02:27:03;;;;;;;11.30;4.80;;;;;;;15.61;59.35;98202.61;105927;1277;97953;-69
2022/06/21 02:29:35;;;;;;;10.20;6.20;;;;;;;15.56;59.62;98205.16;105907;1277;97953;-67
2022/06/21 02:32:10;;;;;;;9.40;5.50;;;;;;;15.47;59.48;98207.59;105909;1277;111402;-68
2022/06/21 02:34:44;;;;;;;11.00;5.60;;;;;;;15.37;59.49;98216.46;105909;1277;97882;-68
2022/06/21 02:37:15;;;;;;;7.90;3.70;;;;;;;15.25;59.87;98215.47;105940;1277;107748;-68
2022/06/21 02:39:50;;;;;;;8.70;3.60;;;;;;;15.12;59.52;98223.88;105944;1277;97964;-69
2022/06/21 02:42:28;;;;;;;5.70;3.50;;;;;;;15.04;59.20;98219.22;105934;1277;97957;-69
2022/06/21 02:45:07;;;;;;;6.40;3.30;;;;;;;14.99;59.13;98223.30;105953;1276;111378;-69
2022/06/21 02:47:44;;;;;;;7.50;3.00;;;;;;;14.95;59.43;98229.45;105932;1276;97942;-68
2022/06/21 02:50:41;;;;;;;6.20;3.00;;;;;;;14.86;59.23;98237.48;105910;1277;107724;-69
2022/06/21 02:53:32;;;;;;;4.80;3.00;;;;;;;14.79;59.22;98240.21;105867;1276;97941;-69
2022/06/21 02:56:16;;;;;;;5.60;3.10;;;;;;;14.76;59.07;98252.11;106010;1277;96991;-70
2022/06/21 02:58:52;;;;;;;6.00;2.90;;;;;;;14.73;59.37;98253.95;105962;1277;111366;-69
2022/06/21 03:01:31;;;;;;;5.50;3.20;;;;;;;14.70;59.15;98252.88;105963;1277;97750;-69
2022/06/21 03:04:01;;;;;;;5.20;2.80;;;;;;;14.70;59.14;98258.60;105990;1277;106105;-68
2022/06/21 03:06:35;;;;;;;5.80;2.90;;;;;;;14.70;59.32;98264.77;105889;1277;97993;-66
2022/06/21 03:09:12;;;;;;;6.30;3.20;;;;;;;14.73;59.25;98277.22;105999;1277;97853;-68
2022/06/21 03:11:47;;;;;;;4.90;2.80;;;;;;;14.71;59.21;98275.83;105974;1276;111659;-69
2022/06/21 03:14:22;;;;;;;6.70;2.90;;;;;;;14.67;59.33;98276.48;105996;1277;97010;-69
2022/06/21 03:16:54;;;;;;;5.90;2.70;;;;;;;14.64;59.38;98285.77;105982;1277;107806;-68
2022/06/21 03:19:43;;;;;;;4.90;2.80;;;;;;;14.63;59.37;98289.11;105969;1277;97907;-68
2022/06/21 03:22:24;;;;;;;7.60;2.70;;;;;;;14.59;59.57;98286.27;105995;1277;97775;-68
2022/06/21 03:24:59;;;;;;;4.70;2.50;;;;;;;14.56;59.58;98285.06;106008;1277;111356;-68
2022/06/21 03:27:46;;;;;;;5.40;2.70;;;;;;;14.53;59.53;98287.36;105977;1277;97941;-69
2022/06/21 03:30:20;;;;;;;6.70;2.50;;;;;;;14.49;59.43;98289.53;105958;1277;108406;-70
2022/06/21 03:32:52;;;;;;;10.30;3.10;;;;;;;14.48;59.35;98292.52;105802;1277;95340;-68
2022/06/21 03:35:24;;;;;;;5.40;2.80;;;;;;;14.47;59.41;98298.35;105920;1277;98680;-67
2022/06/21 03:37:58;;;;;;;5.90;2.70;;;;;;;14.45;59.45;98296.73;105992;1277;111382;-68
2022/06/21 03:43:38;;;;;;;3.40;2.20;;;;;;;14.45;59.45;98295.47;105967;1277;107294;-67
2022/06/21 03:46:13;;;;;;;6.90;2.40;;;;;;;14.47;59.44;98305.17;103585;1277;3110470;-69
2022/06/21 03:48:54;;;;;;;6.70;2.60;;;;;;;14.47;59.39;98302.63;105826;1277;97979;-69
2022/06/21 03:51:30;;;;;;;4.70;2.70;;;;;;;14.48;59.51;98307.52;106021;1276;111384;-68
2022/06/21 03:54:17;;;;;;;6.70;2.50;;;;;;;14.50;59.63;98308.06;106020;1276;97963;-69
2022/06/21 03:57:03;;;;;;;5.50;2.90;;;;;;;14.48;60.06;98311.39;105917;1277;105737;-69
2022/06/21 03:59:54;;;;;;;4.50;3.20;;;;;;;14.44;59.58;98304.38;106019;1277;95294;-69
2022/06/21 04:02:33;;;;;;;4.30;3.00;;;;;;;14.42;59.53;98311.13;105913;1277;95317;-68
2022/06/21 04:05:34;;;;;;;7.90;3.90;;;;;;;14.42;59.72;98309.48;105919;1277;111634;-69
2022/06/21 04:08:26;;;;;;;7.70;4.00;;;;;;;14.41;59.41;98303.26;105943;1277;95733;-68
2022/06/21 04:11:06;;;;;;;8.80;4.20;;;;;;;14.43;59.57;98309.10;105918;1277;107431;-67
2022/06/21 04:13:53;;;;;;;7.50;4.70;;;;;;;14.43;59.57;98310.34;105959;1277;97887;-67
2022/06/21 04:16:36;;;;;;;8.10;4.60;;;;;;;14.42;59.53;98318.29;105941;1276;97824;-66
2022/06/21 04:19:20;;;;;;;9.80;5.00;;;;;;;14.46;59.49;98323.05;105918;1276;111984;-66
2022/06/21 04:22:06;;;;;;;11.10;4.90;;;;;;;14.51;59.49;98320.02;105966;1276;97620;-67
2022/06/21 04:24:47;;;;;;;9.10;4.60;;;;;;;14.52;59.50;98318.65;105893;1276;108292;-67
2022/06/21 04:27:29;;;;;;;7.20;4.20;;;;;;;14.48;59.37;98322.17;105904;1276;97937;-67
2022/06/21 04:30:05;;;;;;;9.80;4.60;;;;;;;14.50;59.43;98327.44;105938;1276;97988;-68
2022/06/21 04:32:48;;;;;;;12.60;3.90;;;;;;;14.51;59.71;98329.19;105900;1276;112021;-68
2022/06/21 04:35:28;;;;;;;5.80;3.70;;;;;;;14.49;59.56;98330.10;105903;1276;97972;-68
2022/06/21 04:38:05;;;;;;;8.30;3.70;;;;;;;14.47;59.75;98335.08;105921;1276;108788;-68
2022/06/21 04:41:06;;;;;;;8.90;4.50;;;;;;;14.44;60.24;98337.33;105960;1277;97969;-68
2022/06/21 04:44:08;;;;;;;9.30;4.80;;;;;;;14.37;59.56;98340.54;105868;1276;98001;-67
2022/06/21 04:46:36;;;;;;;11.70;4.90;;;;;;;14.34;59.69;98342.95;106006;1276;111450;-67
2022/06/21 04:49:24;;;;;;;6.20;3.90;;;;;;;14.35;59.72;98347.52;105985;1276;97890;-69
2022/06/21 04:52:15;;;;;;;7.80;4.10;;;;;;;14.36;59.65;98348.63;105925;1277;108853;-68
2022/06/21 04:54:44;;;;;;;8.00;3.90;;;;;;;14.40;59.62;98354.18;106021;1276;97925;-67
2022/06/21 04:57:22;;;;;;;9.20;3.70;;;;;;;14.45;59.52;98351.86;105953;1276;97952;-68
2022/06/21 05:00:08;;;;;;;7.90;4.10;;;;;;;14.47;59.42;98350.65;105840;1277;111374;-68
2022/06/21 05:03:00;;;;;;;6.90;3.20;;;;;;;14.48;59.51;98349.83;105919;1277;98461;-67
2022/06/21 05:05:35;;;;;;;5.20;3.00;;;;;;;14.46;59.40;98335.87;105766;1276;107688;-68
2022/06/21 05:08:15;;;;;;;6.60;3.80;;;;;;;14.41;59.44;98334.94;105780;1278;97979;-69
2022/06/21 05:10:51;;;;;;;6.30;3.20;;;;;;;14.38;59.47;98328.11;105910;1277;96390;-67
2022/06/21 05:13:36;;;;;;;8.20;3.10;;;;;;;14.36;59.58;98330.80;105909;1276;110804;-68
2022/06/21 05:16:36;;;;;;;9.60;3.70;;;;;;;14.34;59.62;98332.09;105952;1276;97948;-68
2022/06/21 05:19:44;;;;;;;4.90;2.80;;;;;;;14.32;59.63;98331.43;106092;1276;106073;-69
2022/06/21 05:22:21;;;;;;;7.00;3.10;;;;;;;14.31;59.74;98325.40;106013;1276;97886;-69
2022/06/21 05:24:52;;;;;;;7.70;3.40;;;;;;;14.34;59.79;98333.16;105995;1275;97950;-70
2022/06/21 05:27:47;;;;;;;9.90;3.40;;;;;;;14.36;59.74;98331.16;105978;1276;111354;-69
2022/06/21 05:30:25;;;;;;;8.30;3.50;;;;;;;14.36;59.99;98343.80;105875;1276;97840;-68
2022/06/21 05:33:00;;;;;;;4.90;3.10;;;;;;;14.37;59.83;98346.42;105897;1276;107122;-68
2022/06/21 05:35:33;;;;;;;13.60;3.90;;;;;;;14.42;59.92;98343.30;105855;1276;96480;-68
2022/06/21 05:38:20;;;;;;;6.30;3.20;;;;;;;14.49;60.25;98346.50;105920;1276;97838;-69
2022/06/21 05:41:05;;;;;;;6.90;3.50;;;;;;;14.67;59.66;98339.19;105909;1276;111465;-68
2022/06/21 05:43:42;;;;;;;5.70;2.90;;;;;;;15.01;59.53;98338.94;105907;1276;97613;-69
2022/06/21 05:46:16;;;;;;;5.00;3.30;;;;;;;15.41;59.63;98337.14;105972;1276;107785;-69
2022/06/21 05:48:46;;;;;;;9.90;3.30;;;;;;;15.86;59.70;98337.33;105916;1276;97976;-67
2022/06/21 05:51:24;;;;;;;12.40;3.90;;;;;;;16.23;59.27;98344.54;105937;1276;97979;-69
2022/06/21 05:54:01;;;;;;;10.00;3.10;;;;;;;16.36;59.09;98341.09;105979;1276;112068;-68
2022/06/21 05:56:30;;;;;;;9.60;3.80;;;;;;;16.46;58.99;98348.52;105910;1276;97787;-69
2022/06/21 05:59:04;;;;;;;6.90;3.50;;;;;;;16.46;58.94;98343.91;105914;1276;108165;-68
2022/06/21 06:01:59;;;;;;;10.40;3.50;;;;;;;16.49;58.81;98339.73;105985;1276;97932;-69
2022/06/21 06:04:36;;;;;;;7.40;2.90;;;;;;;16.51;58.56;98346.99;105876;1276;97905;-69
2022/06/21 06:07:11;;;;;;;5.70;3.30;;;;;;;16.55;58.68;98343.00;105926;1276;112018;-68
2022/06/21 06:09:47;;;;;;;6.50;3.40;;;;;;;16.60;58.04;98343.84;105958;1276;96569;-69
2022/06/21 06:12:40;;;;;;;6.50;3.30;;;;;;;16.58;57.90;98350.52;105827;1276;107809;-69
2022/06/21 06:15:40;;;;;;;9.10;3.40;;;;;;;16.66;58.22;98344.27;105969;1276;97865;-67
2022/06/21 06:18:24;;;;;;;10.00;3.20;;;;;;;16.73;57.97;98351.95;105884;1276;97855;-70
2022/06/21 06:21:19;;;;;;;7.90;3.70;;;;;;;16.74;58.01;98342.67;105907;1276;111972;-69
2022/06/21 06:24:03;;;;;;;7.40;3.50;;;;;;;16.76;58.08;98341.77;105833;1277;97976;-69
2022/06/21 06:26:44;;;;;;;7.50;3.30;;;;;;;16.84;57.84;98349.50;105875;1276;107726;-69
2022/06/21 06:29:24;;;;;;;7.10;3.00;;;;;;;16.82;57.79;98345.08;105925;1276;97906;-70
2022/06/21 06:32:14;;;;;;;7.80;3.10;;;;;;;16.80;57.90;98343.89;105863;1276;98072;-68
2022/06/21 06:34:50;;;;;;;5.30;2.50;;;;;;;16.78;57.69;98344.06;105864;1276;111313;-68
2022/06/21 06:37:38;;;;;;;5.90;2.30;;;;;;;16.78;57.45;98348.19;105874;1276;97971;-70
2022/06/21 06:40:35;;;;;;;4.10;2.30;;;;;;;16.92;57.25;98342.58;105925;1276;107853;-68
2022/06/21 06:43:19;;;;;;;6.40;2.30;;;;;;;17.01;57.27;98342.11;105987;1276;97996;-70
2022/06/21 06:45:50;;;;;;;5.30;2.60;;;;;;;17.02;57.28;98340.42;105923;1276;97918;-72
2022/06/21 06:48:30;;;;;;;7.40;2.90;;;;;;;16.99;57.09;98347.36;105898;1276;111973;-69
2022/06/21 06:51:29;;;;;;;6.60;2.90;;;;;;;16.87;56.64;98344.92;105896;1276;96365;-68
2022/06/21 06:54:03;;;;;;;4.60;2.60;;;;;;;16.78;56.82;98337.45;105886;1277;108154;-67
2022/06/21 06:57:10;;;;;;;4.70;2.50;;;;;;;16.97;56.40;98336.84;106000;1276;97880;-67
2022/06/21 06:59:44;;;;;;;9.00;2.80;;;;;;;17.43;56.64;98332.41;106007;1276;98072;-66
2022/06/21 07:02:28;;;;;;;8.40;2.80;;;;;;;18.72;55.09;98334.52;105930;1276;112365;-68
2022/06/21 07:05:12;;;;;;;6.40;2.90;;;;;;;20.52;54.28;98328.83;105914;1276;98053;-70
2022/06/21 07:07:48;;;;;;;2.70;2.00;;;;;;;21.64;52.71;98331.27;105949;1276;107658;-68
2022/06/21 07:10:23;;;;;;;5.20;1.90;;;;;;;22.68;51.95;98338.94;105832;1277;96441;-69
2022/06/21 07:12:56;;;;;;;8.40;2.20;;;;;;;22.20;53.17;98353.48;105865;1276;96443;-68
2022/06/21 07:15:36;;;;;;;10.20;2.50;;;;;;;21.52;53.81;98350.79;105861;1276;112054;-68
2022/06/21 07:18:29;;;;;;;7.00;2.10;;;;;;;21.43;53.19;98348.98;105887;1276;95196;-68
2022/06/21 07:21:10;;;;;;;4.20;1.90;;;;;;;23.17;51.84;98352.42;105885;1276;107615;-68
2022/06/21 07:23:38;;;;;;;7.10;2.30;;;;;;;23.07;53.45;98348.48;105864;1276;97901;-69
2022/06/21 07:26:20;;;;;;;4.70;1.90;;;;;;;22.56;53.02;98358.36;105866;1276;97878;-68
2022/06/21 07:29:05;;;;;;;5.40;2.50;;;;;;;22.00;53.89;98357.34;105838;1276;111864;-66
2022/06/21 07:32:05;;;;;;;8.70;2.40;;;;;;;21.71;52.58;98355.47;105802;1277;97996;-69
2022/06/21 07:34:55;;;;;;;5.40;1.90;;;;;;;22.45;50.77;98350.92;105720;1278;108628;-68
2022/06/21 07:38:18;;;;;;;6.20;2.40;;;;;;;22.39;51.64;98349.97;105869;1276;95379;-68
2022/06/21 07:40:59;;;;;;;5.70;2.50;;;;;;;22.85;51.81;98353.71;105483;1282;97907;-69
2022/06/21 07:43:50;;;;;;;7.30;2.00;;;;;;;23.33;50.98;98351.45;105945;1276;110013;-69
2022/06/21 07:46:40;;;;;;;5.40;2.20;;;;;;;23.14;51.64;98358.45;105917;1279;95702;-69
2022/06/21 07:49:25;;;;;;;4.50;1.90;;;;;;;23.72;48.16;98349.75;105861;1276;108524;-68
2022/06/21 07:52:01;;;;;;;3.90;2.20;;;;;;;24.55;48.18;98347.08;105859;1276;97909;-69
2022/06/21 07:54:39;;;;;;;7.30;2.80;;;;;;;24.16;48.99;98347.65;105912;1276;97983;-67
2022/06/21 07:57:17;;;;;;;7.50;2.20;;;;;;;23.44;49.26;98354.59;105849;1276;111029;-69
2022/06/21 07:59:58;;;;;;;9.20;2.10;;;;;;;22.96;48.00;98353.45;105838;1276;95443;-69
2022/06/21 08:09:01;;;;;;;7.90;2.30;;;;;;;25.92;46.66;98332.30;105911;1277;97891;-69
2022/06/21 08:11:41;;;;;;;4.30;2.30;;;;;;;26.34;46.56;98336.66;105818;1276;110249;-69
2022/06/21 08:14:11;;;;;;;7.80;2.30;;;;;;;26.73;45.80;98328.59;105839;1276;98370;-70
2022/06/21 08:17:09;;;;;;;4.90;1.90;;;;;;;26.53;45.44;98329.73;105820;1276;107521;-68
2022/06/21 08:19:58;;;;;;;6.40;1.80;;;;;;;26.57;46.53;98325.86;105891;1276;97989;-68
2022/06/21 08:22:46;;;;;;;4.30;1.90;;;;;;;26.74;45.45;98328.25;106038;1276;97888;-68
2022/06/21 08:25:32;;;;;;;6.60;2.20;;;;;;;25.78;45.32;98327.98;105982;1276;112271;-69
2022/06/21 08:28:18;;;;;;;7.80;1.80;;;;;;;24.69;44.58;98326.91;105937;1276;96387;-69
2022/06/21 08:31:04;;;;;;;6.70;2.00;;;;;;;23.40;43.70;98337.18;105911;1276;108359;-69
2022/06/21 08:33:43;;;;;;;3.50;2.00;;;;;;;22.32;44.41;98338.14;105917;1276;98048;-67
2022/06/21 08:36:33;;;;;;;7.10;2.50;;;;;;;21.76;44.98;98341.34;105892;1276;97832;-68
2022/06/21 08:39:23;;;;;;;5.70;2.30;;;;;;;21.49;44.94;98346.93;105820;1276;111394;-69
2022/06/21 08:42:22;;;;;;;14.50;2.70;;;;;;;21.19;44.74;98345.22;105888;1276;97999;-66
2022/06/21 08:45:41;;;;;;;8.00;3.10;;;;;;;20.88;44.41;98351.91;105919;1276;108409;-70
2022/06/21 08:48:43;;;;;;;5.60;2.70;;;;;;;21.03;43.92;98354.69;105875;1276;97858;-70
2022/06/21 08:51:33;;;;;;;8.50;2.40;;;;;;;20.70;43.90;98353.77;105917;1276;98313;-69
2022/06/21 08:54:28;;;;;;;9.40;2.90;;;;;;;20.75;44.10;98356.40;105845;1276;111185;-69
2022/06/21 08:57:01;;;;;;;8.80;2.90;;;;;;;20.45;43.58;98354.27;105808;1276;96418;-67
2022/06/21 08:59:46;;;;;;;7.80;2.90;;;;;;;20.36;44.14;98345.16;105816;1276;108283;-67
2022/06/21 09:02:25;;;;;;;3.10;2.10;;;;;;;20.78;44.24;98343.55;105849;1276;97954;-68
2022/06/21 09:05:23;;;;;;;6.00;2.40;;;;;;;21.25;43.67;98332.52;105872;1276;97903;-70
2022/06/21 09:08:01;;;;;;;7.60;2.40;;;;;;;21.19;42.74;98339.82;105599;1276;111550;-65
2022/06/21 09:10:50;;;;;;;8.00;2.20;;;;;;;20.91;43.37;98341.62;105836;1276;98000;-67
2022/06/21 09:13:44;;;;;;;6.20;2.40;;;;;;;20.42;42.68;98350.73;105820;1276;108248;-68
2022/06/21 09:16:35;;;;;;;7.00;2.40;;;;;;;19.87;42.88;98351.00;105825;1276;96398;-67
2022/06/21 09:19:28;;;;;;;5.10;2.20;;;;;;;19.47;42.91;98360.70;105829;1276;97835;-68
2022/06/21 09:22:29;;;;;;;5.10;1.70;;;;;;;18.98;42.11;98370.27;105870;1276;112134;-71
2022/06/21 09:25:20;;;;;;;9.70;2.60;;;;;;;18.51;42.97;98363.21;105934;1276;97928;-71
2022/06/21 09:27:52;;;;;;;11.80;2.70;;;;;;;18.28;43.26;98361.39;105824;1276;107764;-69
2022/06/21 09:30:40;;;;;;;3.70;2.30;;;;;;;18.20;43.08;98359.66;105863;1276;97966;-68
2022/06/21 09:33:34;;;;;;;4.20;2.20;;;;;;;18.19;43.24;98355.23;105873;1276;98656;-67
2022/06/21 09:36:22;;;;;;;8.60;2.00;;;;;;;18.70;43.34;98354.94;105778;1276;111105;-68
2022/06/21 09:39:37;;;;;;;7.60;1.90;;;;;;;19.51;43.39;98359.03;105909;1276;95675;-68
2022/06/21 09:42:34;;;;;;;6.60;2.00;;;;;;;20.22;42.98;98370.15;105900;1278;108315;-67
2022/06/21 09:45:38;;;;;;;5.20;1.90;;;;;;;20.69;42.03;98369.52;105822;1276;97940;-67
2022/06/21 09:48:14;;;;;;;;;;;;;;;20.37;42.39;98361.58;105875;1276;97874;-66
2022/06/21 09:50:54;;;;;;;9.10;1.80;;;;;;;20.25;42.52;98355.39;105820;1276;111888;-68
2022/06/21 09:53:50;;;;;;;;;;;;;;;20.07;42.37;98350.14;105885;1276;98007;-65
2022/06/21 09:56:43;;;;;;;6.10;1.70;;;;;;;19.84;42.19;98362.31;105795;1276;108245;-68
2022/06/21 09:59:35;;;;;;;8.40;1.80;;;;;;;19.65;42.30;98365.33;105819;1276;97797;-67
2022/06/21 10:02:07;;;;;;;;;;;;;;;19.37;42.08;98362.29;105889;1276;97978;-67
2022/06/21 10:05:00;;;;;;;7.30;1.70;;;;;;;19.10;42.23;98368.89;105856;1276;110468;-66
2022/06/21 10:07:44;;;;;;;6.30;1.80;;;;;;;18.85;41.86;98369.63;105854;1276;97064;-68
2022/06/21 10:10:31;;;;;;;;;;;;;;;18.71;42.20;98373.50;105955;1276;108687;-69
2022/06/21 10:13:16;;;;;;;5.90;1.70;;;;;;;18.60;42.09;98378.86;105930;1276;97886;-69
2022/06/21 10:15:53;;;;;;;7.20;1.20;;;;;;;18.52;42.30;98375.16;105898;1277;97873;-65
2022/06/21 10:18:39;;;;;;;9.90;1.50;;;;;;;18.55;42.11;98381.62;105749;1276;110803;-67
2022/06/21 10:21:31;;;;;;;6.90;1.60;;;;;;;18.54;41.66;98382.86;105950;1276;97909;-68
2022/06/21 10:24:07;;;;;;;3.80;1.30;;;;;;;18.47;42.17;98379.66;105977;1277;107676;-68
2022/06/21 10:27:04;;;;;;;7.70;1.60;;;;;;;18.43;41.99;98379.73;105918;1277;95379;-67
2022/06/21 10:29:57;;;;;;;4.00;1.40;;;;;;;18.28;41.60;98377.74;105834;1277;97544;-69
2022/06/21 10:32:40;;;;;;;6.20;1.50;;;;;;;18.07;41.55;98386.42;105837;1277;112060;-69
2022/06/21 10:35:24;;;;;;;3.80;1.20;;;;;;;17.95;41.79;98379.86;105846;1277;98089;-71
2022/06/21 10:38:23;;;;;;;4.60;0.90;;;;;;;17.94;41.98;98379.09;105813;1277;108801;-67
2022/06/21 10:41:03;;;;;;;3.00;1.60;;;;;;;17.93;41.97;98379.86;105838;1277;98019;-66
2022/06/21 10:43:54;;;;;;;4.60;1.30;;;;;;;17.91;41.76;98377.45;105875;1277;95298;-65
2022/06/21 10:46:24;;;;;;;2.40;1.20;;;;;;;17.84;42.01;98383.73;105856;1277;111400;-68
2022/06/21 10:49:40;;;;;;;3.20;1.40;;;;;;;17.80;42.29;98379.55;105876;1278;97920;-65
2022/06/21 10:52:41;;;;;;;5.60;1.60;;;;;;;17.80;42.28;98378.46;105885;1278;107782;-67
2022/06/21 10:55:31;;;;;;;3.60;1.40;;;;;;;17.87;42.50;98378.92;105927;1276;98069;-65
2022/06/21 10:58:48;;;;;;;4.50;1.30;;;;;;;17.91;42.36;98377.42;105953;1276;98038;-68
2022/06/21 11:02:06;;;;;;;5.60;1.40;;;;;;;17.83;42.04;98375.23;105384;1282;112041;-67
2022/06/21 11:05:01;;;;;;;4.30;1.50;;;;;;;17.77;42.13;98379.16;105821;1276;97903;-67
2022/06/21 11:08:01;;;;;;;7.60;1.30;;;;;;;17.76;42.20;98376.20;105871;1276;108850;-69
2022/06/21 11:10:46;;;;;;;7.10;1.50;;;;;;;17.81;42.26;98388.02;105883;1276;97913;-67
2022/06/21 11:13:22;;;;;;;6.40;2.30;;;;;;;17.82;42.11;98386.34;105959;1276;97799;-66
2022/06/21 11:15:52;;;;;;;4.10;1.40;;;;;;;17.86;42.15;98382.63;105925;1276;112432;-68
2022/06/21 11:18:23;;;;;;;3.90;1.60;;;;;;;17.94;42.38;98390.32;105805;1276;97969;-65
2022/06/21 11:21:15;;;;;;;3.40;1.20;;;;;;;18.10;42.34;98387.14;105929;1276;108407;-69
2022/06/21 11:23:55;;;;;;;2.70;1.30;;;;;;;18.23;42.25;98397.29;105994;1276;97906;-70
2022/06/21 11:26:42;;;;;;;1.90;1.00;;;;;;;18.12;42.17;98391.20;105832;1276;96298;-65
2022/06/21 11:29:24;;;;;;;3.60;1.20;;;;;;;17.92;42.20;98394.01;105802;1276;112130;-70
2022/06/21 11:31:55;;;;;;;1.90;1.00;;;;;;;17.83;42.16;98400.92;105865;1276;95343;-68
2022/06/21 11:34:49;;;;;;;2.10;1.50;;;;;;;17.79;42.09;98399.42;105865;1276;108696;-67
2022/06/21 11:37:35;;;;;;;4.80;1.40;;;;;;;17.78;42.49;98402.97;105837;1276;97995;-66
2022/06/21 11:40:38;;;;;;;5.10;1.60;;;;;;;17.72;42.47;98408.11;106004;1276;97885;-69
2022/06/21 11:43:39;;;;;;;7.70;1.60;;;;;;;17.63;42.47;98415.23;105927;1276;111464;-69
2022/06/21 11:46:31;;;;;;;4.80;1.60;;;;;;;17.50;42.52;98417.65;105863;1276;97340;-69
2022/06/21 11:49:35;;;;;;;7.30;1.40;;;;;;;17.37;42.64;98424.67;105728;1276;108572;-69
2022/06/21 11:52:21;;;;;;;5.20;1.80;;;;;;;17.14;42.80;98422.63;106002;1277;98092;-68
2022/06/21 11:55:06;;;;;;;5.00;1.20;;;;;;;17.05;42.86;98429.52;105884;1276;96508;-69
2022/06/21 11:58:01;;;;;;;8.10;1.60;;;;;;;16.96;42.95;98425.95;105840;1276;111967;-69
2022/06/21 12:00:49;;;;;;;6.50;1.40;;;;;;;16.90;43.13;98437.61;105953;1276;97905;-70
2022/06/21 12:03:54;;;;;;;3.40;1.30;;;;;;;16.84;43.11;98428.86;105946;1276;107835;-69
2022/06/21 12:06:57;;;;;;;5.80;1.50;;;;;;;16.86;43.31;98433.84;105844;1276;97936;-69
2022/06/21 12:09:47;;;;;;;6.60;1.50;;;;;;;16.87;43.16;98437.44;105971;1276;97906;-70
2022/06/21 12:12:42;;;;;;;5.90;1.00;;;;;;;16.88;43.33;98428.84;105915;1277;112416;-69
2022/06/21 12:15:47;;;;;;;5.50;1.30;;;;;;;16.96;43.62;98432.16;105863;1276;98001;-69
2022/06/21 12:18:30;;;;;;;4.10;1.40;;;;;;;17.07;43.71;98435.66;105873;1276;108083;-69
2022/06/21 12:21:16;;;;;;;5.00;1.90;;;;;;;17.18;43.66;98427.89;105950;1276;97887;-69
2022/06/21 12:24:05;;;;;;;6.90;1.60;;;;;;;17.27;43.53;98418.27;105932;1276;97963;-69
2022/06/21 12:26:36;;;;;;;7.30;1.70;;;;;;;17.32;43.69;98427.65;106003;1276;111307;-69
2022/06/21 12:29:18;;;;;;;3.90;1.90;;;;;;;17.35;44.07;98428.16;105922;1276;98022;-69
2022/06/21 12:32:00;;;;;;;7.70;1.50;;;;;;;17.44;44.36;98440.29;105880;1276;109247;-69
2022/06/21 12:34:42;;;;;;;4.50;1.80;;;;;;;17.42;44.24;98437.90;105838;1276;97853;-69
2022/06/21 12:37:30;;;;;;;5.80;1.40;;;;;;;17.42;44.20;98429.33;105867;1276;96359;-68
2022/06/21 12:40:32;;;;;;;3.10;1.40;;;;;;;17.44;44.39;98437.89;105924;1276;112426;-68
2022/06/21 12:43:23;;;;;;;1.80;1.30;;;;;;;17.34;44.56;98430.59;105950;1276;97976;-69
2022/06/21 12:46:10;;;;;;;5.10;1.50;;;;;;;17.29;44.79;98423.15;105962;1276;108348;-69
2022/06/21 12:49:03;;;;;;;4.50;1.70;;;;;;;17.32;44.88;98423.44;105939;1276;97869;-69
2022/06/21 12:51:57;;;;;;;6.70;1.60;;;;;;;17.33;45.18;98425.32;105916;1276;97910;-69